sensor_id;sensor_type;location;lat;lon;timestamp;temperature;humidity
59703;DHT22;45570;48.782;8.332;2023-06-04T05:37:07;15.80;99.90
59703;DHT22;45570;48.782;8.332;2023-06-04T05:39:40;16.30;99.90
59703;DHT22;45570;48.782;8.332;2023-06-04T05:42:13;16.60;99.90
59703;DHT22;45570;48.782;8.332;2023-06-04T05:44:44;16.80;99.90
59703;DHT22;45570;48.782;8.332;2023-06-04T05:47:17;17.00;99.90
59703;DHT22;45570;48.782;8.332;2023-06-04T05:49:47;17.30;99.90
59703;DHT22;45570;48.782;8.332;2023-06-04T05:56:28;17.90;99.90
59703;DHT22;45570;48.782;8.332;2023-06-04T05:59:55;18.20;99.90
59703;DHT22;45570;48.782;8.332;2023-06-04T06:03:03;18.60;99.90
59703;DHT22;45570;48.782;8.332;2023-06-04T06:06:10;18.70;99.90
59703;DHT22;45570;48.782;8.332;2023-06-04T06:13:54;18.30;99.90
59703;DHT22;45570;48.782;8.332;2023-06-04T06:16:59;18.50;99.90
59703;DHT22;45570;48.782;8.332;2023-06-04T06:20:30;18.90;99.90
59703;DHT22;45570;48.782;8.332;2023-06-04T06:23:56;19.00;99.90
59703;DHT22;45570;48.782;8.332;2023-06-04T06:26:39;19.40;99.90
59703;DHT22;45570;48.782;8.332;2023-06-04T06:33:25;19.60;99.90
59703;DHT22;45570;48.782;8.332;2023-06-04T06:35:55;19.60;99.90
59703;DHT22;45570;48.782;8.332;2023-06-04T06:38:24;19.50;99.90
59703;DHT22;45570;48.782;8.332;2023-06-04T06:40:53;19.70;99.90
59703;DHT22;45570;48.782;8.332;2023-06-04T06:43:23;19.80;99.90
59703;DHT22;45570;48.782;8.332;2023-06-04T06:45:52;19.70;99.90
59703;DHT22;45570;48.782;8.332;2023-06-04T06:48:21;19.70;99.90
59703;DHT22;45570;48.782;8.332;2023-06-04T06:50:53;19.80;99.90
59703;DHT22;45570;48.782;8.332;2023-06-04T06:53:23;20.00;99.90
59703;DHT22;45570;48.782;8.332;2023-06-04T06:55:52;20.30;99.90
59703;DHT22;45570;48.782;8.332;2023-06-04T06:58:22;20.30;99.90
59703;DHT22;45570;48.782;8.332;2023-06-04T07:00:52;20.50;99.90
59703;DHT22;45570;48.782;8.332;2023-06-04T07:03:22;20.80;99.90
59703;DHT22;45570;48.782;8.332;2023-06-04T07:05:54;21.00;99.90
59703;DHT22;45570;48.782;8.332;2023-06-04T07:08:23;20.90;99.90
59703;DHT22;45570;48.782;8.332;2023-06-04T07:10:52;21.00;99.90
59703;DHT22;45570;48.782;8.332;2023-06-04T07:13:22;21.30;99.90
59703;DHT22;45570;48.782;8.332;2023-06-04T07:15:51;21.30;99.90
59703;DHT22;45570;48.782;8.332;2023-06-04T07:18:20;21.50;99.90
59703;DHT22;45570;48.782;8.332;2023-06-04T07:20:52;21.70;99.90
59703;DHT22;45570;48.782;8.332;2023-06-04T07:23:24;21.90;99.90
59703;DHT22;45570;48.782;8.332;2023-06-04T07:25:53;22.20;99.90
59703;DHT22;45570;48.782;8.332;2023-06-04T07:28:23;22.50;99.90
59703;DHT22;45570;48.782;8.332;2023-06-04T07:30:52;22.50;99.90
59703;DHT22;45570;48.782;8.332;2023-06-04T07:33:21;22.60;99.90
59703;DHT22;45570;48.782;8.332;2023-06-04T07:35:52;22.50;99.90
59703;DHT22;45570;48.782;8.332;2023-06-04T07:38:21;22.40;99.90
59703;DHT22;45570;48.782;8.332;2023-06-04T07:40:50;22.40;99.90
59703;DHT22;45570;48.782;8.332;2023-06-04T07:43:20;22.70;99.90
59703;DHT22;45570;48.782;8.332;2023-06-04T07:45:49;22.90;99.90
59703;DHT22;45570;48.782;8.332;2023-06-04T07:48:19;23.10;99.90
59703;DHT22;45570;48.782;8.332;2023-06-04T07:50:49;23.20;99.90
59703;DHT22;45570;48.782;8.332;2023-06-04T07:53:19;23.20;99.90
59703;DHT22;45570;48.782;8.332;2023-06-04T07:55:49;23.30;99.90
59703;DHT22;45570;48.782;8.332;2023-06-04T07:58:18;23.30;99.90
59703;DHT22;45570;48.782;8.332;2023-06-04T08:00:48;23.40;99.90
59703;DHT22;45570;48.782;8.332;2023-06-04T08:03:17;23.70;99.90
59703;DHT22;45570;48.782;8.332;2023-06-04T08:05:48;23.60;99.90
59703;DHT22;45570;48.782;8.332;2023-06-04T08:08:19;23.50;99.90
59703;DHT22;45570;48.782;8.332;2023-06-04T08:10:48;23.30;99.90
59703;DHT22;45570;48.782;8.332;2023-06-04T08:13:18;23.10;99.90
59703;DHT22;45570;48.782;8.332;2023-06-04T08:15:48;23.40;99.90
59703;DHT22;45570;48.782;8.332;2023-06-04T08:18:17;23.70;99.90
59703;DHT22;45570;48.782;8.332;2023-06-04T08:20:47;23.40;99.90
59703;DHT22;45570;48.782;8.332;2023-06-04T08:23:16;23.10;99.90
59703;DHT22;45570;48.782;8.332;2023-06-04T08:25:47;23.20;99.90
59703;DHT22;45570;48.782;8.332;2023-06-04T08:28:16;23.20;99.90
59703;DHT22;45570;48.782;8.332;2023-06-04T08:30:46;23.40;99.90
59703;DHT22;45570;48.782;8.332;2023-06-04T08:33:16;23.60;99.90
59703;DHT22;45570;48.782;8.332;2023-06-04T08:35:45;23.70;99.90
59703;DHT22;45570;48.782;8.332;2023-06-04T08:38:14;23.90;99.90
59703;DHT22;45570;48.782;8.332;2023-06-04T08:40:46;24.10;99.90
59703;DHT22;45570;48.782;8.332;2023-06-04T08:43:19;24.80;99.90
59703;DHT22;45570;48.782;8.332;2023-06-04T08:45:50;25.20;99.90
59703;DHT22;45570;48.782;8.332;2023-06-04T08:48:21;25.70;99.90
59703;DHT22;45570;48.782;8.332;2023-06-04T08:50:53;26.10;99.90
59703;DHT22;45570;48.782;8.332;2023-06-04T08:53:23;26.20;99.90
59703;DHT22;45570;48.782;8.332;2023-06-04T08:55:54;26.40;99.90
59703;DHT22;45570;48.782;8.332;2023-06-04T08:58:25;26.70;99.90
59703;DHT22;45570;48.782;8.332;2023-06-04T09:00:54;27.00;99.90
59703;DHT22;45570;48.782;8.332;2023-06-04T09:49:01;27.00;92.70
59703;DHT22;45570;48.782;8.332;2023-06-04T09:51:31;26.90;92.90
59703;DHT22;45570;48.782;8.332;2023-06-04T09:54:02;26.50;91.20
59703;DHT22;45570;48.782;8.332;2023-06-04T09:56:40;25.80;94.20
59703;DHT22;45570;48.782;8.332;2023-06-04T09:59:10;25.70;95.30
59703;DHT22;45570;48.782;8.332;2023-06-04T10:01:40;25.80;93.10
59703;DHT22;45570;48.782;8.332;2023-06-04T10:04:13;26.00;98.60
59703;DHT22;45570;48.782;8.332;2023-06-04T10:06:43;26.30;94.80
59703;DHT22;45570;48.782;8.332;2023-06-04T10:09:13;26.60;93.30
59703;DHT22;45570;48.782;8.332;2023-06-04T10:11:48;26.60;90.40
59703;DHT22;45570;48.782;8.332;2023-06-04T10:14:22;26.70;93.80
59703;DHT22;45570;48.782;8.332;2023-06-04T10:16:52;26.80;91.50
59703;DHT22;45570;48.782;8.332;2023-06-04T10:19:22;26.70;90.90
59703;DHT22;45570;48.782;8.332;2023-06-04T10:21:56;26.90;91.60
59703;DHT22;45570;48.782;8.332;2023-06-04T10:24:27;26.90;90.60
59703;DHT22;45570;48.782;8.332;2023-06-04T10:26:59;26.90;91.80
59703;DHT22;45570;48.782;8.332;2023-06-04T10:29:30;26.80;90.00
59703;DHT22;45570;48.782;8.332;2023-06-04T10:32:00;26.80;89.40
59703;DHT22;45570;48.782;8.332;2023-06-04T10:34:30;27.00;90.50
59703;DHT22;45570;48.782;8.332;2023-06-04T10:37:00;26.80;89.70
59703;DHT22;45570;48.782;8.332;2023-06-04T10:39:31;26.90;86.50
59703;DHT22;45570;48.782;8.332;2023-06-04T10:42:04;26.70;86.50
59703;DHT22;45570;48.782;8.332;2023-06-04T10:44:45;26.80;92.00
59703;DHT22;45570;48.782;8.332;2023-06-04T10:47:19;27.10;94.00
59703;DHT22;45570;48.782;8.332;2023-06-04T10:49:50;27.10;88.50
59703;DHT22;45570;48.782;8.332;2023-06-04T10:52:20;27.10;89.50
59703;DHT22;45570;48.782;8.332;2023-06-04T15:28:14;25.50;77.20
59703;DHT22;45570;48.782;8.332;2023-06-04T15:30:44;25.70;71.00
59703;DHT22;45570;48.782;8.332;2023-06-04T15:33:13;25.80;77.70
59703;DHT22;45570;48.782;8.332;2023-06-04T15:35:44;25.80;73.00
59703;DHT22;45570;48.782;8.332;2023-06-04T15:38:13;25.70;73.20
59703;DHT22;45570;48.782;8.332;2023-06-04T15:40:43;25.50;77.40
59703;DHT22;45570;48.782;8.332;2023-06-04T15:43:14;25.40;75.20
59703;DHT22;45570;48.782;8.332;2023-06-04T15:45:43;25.50;74.40
59703;DHT22;45570;48.782;8.332;2023-06-04T15:48:13;25.40;73.60
59703;DHT22;45570;48.782;8.332;2023-06-04T15:50:42;25.30;76.20
59703;DHT22;45570;48.782;8.332;2023-06-04T15:53:12;25.30;74.40
59703;DHT22;45570;48.782;8.332;2023-06-04T15:55:42;25.20;73.10
59703;DHT22;45570;48.782;8.332;2023-06-04T15:58:12;25.20;73.50
59703;DHT22;45570;48.782;8.332;2023-06-04T16:00:42;25.20;74.90
59703;DHT22;45570;48.782;8.332;2023-06-04T16:03:11;25.40;81.70
59703;DHT22;45570;48.782;8.332;2023-06-04T16:05:41;25.40;76.20
59703;DHT22;45570;48.782;8.332;2023-06-04T16:08:11;25.40;74.90
59703;DHT22;45570;48.782;8.332;2023-06-04T16:10:40;25.50;71.30
59703;DHT22;45570;48.782;8.332;2023-06-04T16:13:10;25.30;71.40
59703;DHT22;45570;48.782;8.332;2023-06-04T16:15:41;25.40;72.70
59703;DHT22;45570;48.782;8.332;2023-06-04T16:18:11;25.30;70.70
59703;DHT22;45570;48.782;8.332;2023-06-04T16:20:40;25.40;73.90
59703;DHT22;45570;48.782;8.332;2023-06-04T16:23:09;25.30;69.00
59703;DHT22;45570;48.782;8.332;2023-06-04T16:25:39;25.20;73.50
59703;DHT22;45570;48.782;8.332;2023-06-04T16:28:08;25.20;71.90
59703;DHT22;45570;48.782;8.332;2023-06-04T16:30:38;25.20;71.90
59703;DHT22;45570;48.782;8.332;2023-06-04T16:33:09;25.30;72.50
59703;DHT22;45570;48.782;8.332;2023-06-04T16:35:39;25.20;75.50
59703;DHT22;45570;48.782;8.332;2023-06-04T16:38:08;25.20;68.60
59703;DHT22;45570;48.782;8.332;2023-06-04T16:40:37;25.40;67.40
59703;DHT22;45570;48.782;8.332;2023-06-04T16:43:07;25.30;65.80
59703;DHT22;45570;48.782;8.332;2023-06-04T16:45:36;25.60;66.20
59703;DHT22;45570;48.782;8.332;2023-06-04T16:48:05;25.50;71.80
59703;DHT22;45570;48.782;8.332;2023-06-04T16:50:37;25.20;67.50
59703;DHT22;45570;48.782;8.332;2023-06-04T16:53:07;25.10;72.00
59703;DHT22;45570;48.782;8.332;2023-06-04T16:55:36;24.90;70.70
59703;DHT22;45570;48.782;8.332;2023-06-04T16:58:11;24.80;65.80
59703;DHT22;45570;48.782;8.332;2023-06-04T17:00:40;24.70;66.80
59703;DHT22;45570;48.782;8.332;2023-06-04T17:03:09;24.60;65.80
59703;DHT22;45570;48.782;8.332;2023-06-04T17:08:10;24.40;68.20
59703;DHT22;45570;48.782;8.332;2023-06-04T17:10:40;24.30;74.40
59703;DHT22;45570;48.782;8.332;2023-06-04T17:13:09;24.10;75.20
59703;DHT22;45570;48.782;8.332;2023-06-04T17:15:38;24.20;74.00
59703;DHT22;45570;48.782;8.332;2023-06-04T17:18:08;24.10;68.10
59703;DHT22;45570;48.782;8.332;2023-06-04T17:20:40;24.10;69.30
59703;DHT22;45570;48.782;8.332;2023-06-04T17:23:19;24.00;71.30
59703;DHT22;45570;48.782;8.332;2023-06-04T17:25:49;23.90;72.40
59703;DHT22;45570;48.782;8.332;2023-06-04T17:28:18;23.50;69.70
59703;DHT22;45570;48.782;8.332;2023-06-04T17:30:48;23.40;70.20
59703;DHT22;45570;48.782;8.332;2023-06-04T17:33:17;23.20;72.10
59703;DHT22;45570;48.782;8.332;2023-06-04T17:35:49;23.10;67.80
59703;DHT22;45570;48.782;8.332;2023-06-04T17:38:18;23.00;76.60
59703;DHT22;45570;48.782;8.332;2023-06-04T17:40:47;22.80;71.90
59703;DHT22;45570;48.782;8.332;2023-06-04T17:43:17;22.80;79.30
59703;DHT22;45570;48.782;8.332;2023-06-04T17:45:46;22.60;76.70
59703;DHT22;45570;48.782;8.332;2023-06-04T17:48:15;22.40;70.00
59703;DHT22;45570;48.782;8.332;2023-06-04T17:50:45;22.40;73.80
59703;DHT22;45570;48.782;8.332;2023-06-04T17:53:16;22.30;76.50
59703;DHT22;45570;48.782;8.332;2023-06-04T17:55:45;22.30;78.00
59703;DHT22;45570;48.782;8.332;2023-06-04T17:58:14;22.10;82.90
59703;DHT22;45570;48.782;8.332;2023-06-04T18:00:44;21.80;83.40
59703;DHT22;45570;48.782;8.332;2023-06-04T18:03:13;21.70;81.40
59703;DHT22;45570;48.782;8.332;2023-06-04T18:05:42;21.50;73.40
59703;DHT22;45570;48.782;8.332;2023-06-04T18:08:11;21.60;75.80
59703;DHT22;45570;48.782;8.332;2023-06-04T18:10:42;21.50;80.90
59703;DHT22;45570;48.782;8.332;2023-06-04T18:13:12;21.50;81.50
59703;DHT22;45570;48.782;8.332;2023-06-04T18:15:41;21.30;84.70
59703;DHT22;45570;48.782;8.332;2023-06-04T18:18:10;21.10;84.90
59703;DHT22;45570;48.782;8.332;2023-06-04T18:20:40;21.00;84.70
59703;DHT22;45570;48.782;8.332;2023-06-04T18:23:10;20.90;83.30
59703;DHT22;45570;48.782;8.332;2023-06-04T18:25:42;20.70;91.30
59703;DHT22;45570;48.782;8.332;2023-06-04T18:28:11;20.50;91.00
59703;DHT22;45570;48.782;8.332;2023-06-04T18:30:40;20.30;91.00
59703;DHT22;45570;48.782;8.332;2023-06-04T18:33:10;20.10;91.60
59703;DHT22;45570;48.782;8.332;2023-06-04T18:35:39;19.90;90.70
59703;DHT22;45570;48.782;8.332;2023-06-04T18:38:08;19.80;91.40
59703;DHT22;45570;48.782;8.332;2023-06-04T18:40:38;19.70;84.30
59703;DHT22;45570;48.782;8.332;2023-06-04T18:43:09;19.60;91.10
59703;DHT22;45570;48.782;8.332;2023-06-04T18:45:38;19.50;90.50
59703;DHT22;45570;48.782;8.332;2023-06-04T18:48:07;19.40;91.40
59703;DHT22;45570;48.782;8.332;2023-06-04T18:50:39;19.40;91.50
59703;DHT22;45570;48.782;8.332;2023-06-04T18:53:13;19.20;91.40
59703;DHT22;45570;48.782;8.332;2023-06-04T18:55:55;19.10;91.10
59703;DHT22;45570;48.782;8.332;2023-06-04T18:58:27;19.00;91.80
59703;DHT22;45570;48.782;8.332;2023-06-04T19:00:57;18.90;91.80
59703;DHT22;45570;48.782;8.332;2023-06-04T19:03:26;18.90;91.70
59703;DHT22;45570;48.782;8.332;2023-06-04T19:05:56;18.80;94.70
59703;DHT22;45570;48.782;8.332;2023-06-04T19:08:25;18.60;92.80
59703;DHT22;45570;48.782;8.332;2023-06-04T19:10:55;18.50;95.00
59703;DHT22;45570;48.782;8.332;2023-06-04T19:13:24;18.30;94.00
59703;DHT22;45570;48.782;8.332;2023-06-04T19:15:55;18.20;96.30
59703;DHT22;45570;48.782;8.332;2023-06-04T19:18:24;17.90;97.90
59703;DHT22;45570;48.782;8.332;2023-06-04T19:20:54;17.70;98.80
59703;DHT22;45570;48.782;8.332;2023-06-04T19:23:23;17.80;95.30
59703;DHT22;45570;48.782;8.332;2023-06-04T19:25:53;17.50;98.50
59703;DHT22;45570;48.782;8.332;2023-06-04T19:28:22;17.40;97.20
59703;DHT22;45570;48.782;8.332;2023-06-04T19:30:51;17.20;99.90
59703;DHT22;45570;48.782;8.332;2023-06-04T19:33:22;17.00;99.90
59703;DHT22;45570;48.782;8.332;2023-06-04T19:35:51;16.80;99.90
59703;DHT22;45570;48.782;8.332;2023-06-04T19:38:20;16.60;99.90
59703;DHT22;45570;48.782;8.332;2023-06-04T19:40:50;16.40;99.90
59703;DHT22;45570;48.782;8.332;2023-06-04T19:43:19;16.20;99.90
59703;DHT22;45570;48.782;8.332;2023-06-04T19:45:48;16.10;99.90
59703;DHT22;45570;48.782;8.332;2023-06-04T19:48:18;15.90;99.90
59703;DHT22;45570;48.782;8.332;2023-06-04T19:50:49;15.70;99.90
59703;DHT22;45570;48.782;8.332;2023-06-04T19:53:19;15.60;99.90
59703;DHT22;45570;48.782;8.332;2023-06-04T19:55:48;15.60;99.90
59703;DHT22;45570;48.782;8.332;2023-06-04T19:58:17;15.40;99.90
59703;DHT22;45570;48.782;8.332;2023-06-04T20:00:47;15.20;99.90
59703;DHT22;45570;48.782;8.332;2023-06-04T20:03:17;15.30;99.90
59703;DHT22;45570;48.782;8.332;2023-06-04T20:05:48;15.10;99.90
59703;DHT22;45570;48.782;8.332;2023-06-04T20:08:18;15.00;99.90
59703;DHT22;45570;48.782;8.332;2023-06-04T20:10:47;15.00;99.90
59703;DHT22;45570;48.782;8.332;2023-06-04T20:13:16;14.90;99.90
59703;DHT22;45570;48.782;8.332;2023-06-04T20:15:45;14.60;99.90
59703;DHT22;45570;48.782;8.332;2023-06-04T20:18:15;14.70;99.90
59703;DHT22;45570;48.782;8.332;2023-06-04T20:20:44;14.40;99.90
59703;DHT22;45570;48.782;8.332;2023-06-04T20:23:20;14.30;99.90
59703;DHT22;45570;48.782;8.332;2023-06-04T20:25:50;14.50;99.90
59703;DHT22;45570;48.782;8.332;2023-06-04T20:29:21;14.30;99.90
59703;DHT22;45570;48.782;8.332;2023-06-04T20:31:54;14.20;99.90
59703;DHT22;45570;48.782;8.332;2023-06-04T20:34:28;13.90;99.90
59703;DHT22;45570;48.782;8.332;2023-06-04T20:36:59;13.90;99.90
59703;DHT22;45570;48.782;8.332;2023-06-04T20:39:32;13.90;99.90
59703;DHT22;45570;48.782;8.332;2023-06-04T20:42:07;13.80;99.90
59703;DHT22;45570;48.782;8.332;2023-06-04T20:44:36;14.10;99.90
59703;DHT22;45570;48.782;8.332;2023-06-04T20:47:06;14.00;99.90
59703;DHT22;45570;48.782;8.332;2023-06-04T20:49:36;13.90;99.90
59703;DHT22;45570;48.782;8.332;2023-06-04T20:52:06;14.00;99.90
59703;DHT22;45570;48.782;8.332;2023-06-04T20:54:37;13.80;99.90
59703;DHT22;45570;48.782;8.332;2023-06-04T20:57:07;13.70;99.90
59703;DHT22;45570;48.782;8.332;2023-06-04T20:59:36;13.60;99.90
59703;DHT22;45570;48.782;8.332;2023-06-04T21:02:06;13.70;99.90
59703;DHT22;45570;48.782;8.332;2023-06-04T21:04:36;13.50;99.90
59703;DHT22;45570;48.782;8.332;2023-06-04T21:07:06;13.50;99.90
59703;DHT22;45570;48.782;8.332;2023-06-04T21:09:37;13.70;99.90
59703;DHT22;45570;48.782;8.332;2023-06-04T21:12:07;13.40;99.90
59703;DHT22;45570;48.782;8.332;2023-06-04T21:14:37;13.30;99.90
59703;DHT22;45570;48.782;8.332;2023-06-04T21:17:06;13.10;99.90
59703;DHT22;45570;48.782;8.332;2023-06-04T21:19:36;13.00;99.90
59703;DHT22;45570;48.782;8.332;2023-06-04T21:22:06;13.10;99.90
59703;DHT22;45570;48.782;8.332;2023-06-04T21:24:37;12.90;99.90
59703;DHT22;45570;48.782;8.332;2023-06-04T21:27:07;12.90;99.90
59703;DHT22;45570;48.782;8.332;2023-06-04T21:29:37;12.80;99.90
59703;DHT22;45570;48.782;8.332;2023-06-04T21:32:07;12.70;99.90
59703;DHT22;45570;48.782;8.332;2023-06-04T21:34:37;12.70;99.90
59703;DHT22;45570;48.782;8.332;2023-06-04T21:37:07;12.60;99.90
59703;DHT22;45570;48.782;8.332;2023-06-04T21:39:38;12.50;99.90
59703;DHT22;45570;48.782;8.332;2023-06-04T21:42:07;12.40;99.90
59703;DHT22;45570;48.782;8.332;2023-06-04T21:44:37;12.30;99.90
59703;DHT22;45570;48.782;8.332;2023-06-04T21:47:07;12.30;99.90
59703;DHT22;45570;48.782;8.332;2023-06-04T21:49:36;12.30;99.90
59703;DHT22;45570;48.782;8.332;2023-06-04T21:52:06;12.20;99.90
59703;DHT22;45570;48.782;8.332;2023-06-04T21:54:52;12.10;99.90
59703;DHT22;45570;48.782;8.332;2023-06-04T21:57:22;12.20;99.90
59703;DHT22;45570;48.782;8.332;2023-06-04T21:59:52;12.10;99.90
59703;DHT22;45570;48.782;8.332;2023-06-04T22:02:22;12.00;99.90
59703;DHT22;45570;48.782;8.332;2023-06-04T22:04:52;11.90;99.90
59703;DHT22;45570;48.782;8.332;2023-06-04T22:07:22;11.90;99.90
59703;DHT22;45570;48.782;8.332;2023-06-04T22:09:53;11.80;99.90
59703;DHT22;45570;48.782;8.332;2023-06-04T22:12:23;11.70;99.90
59703;DHT22;45570;48.782;8.332;2023-06-04T22:14:55;11.80;99.90
59703;DHT22;45570;48.782;8.332;2023-06-04T22:17:24;11.70;99.90
59703;DHT22;45570;48.782;8.332;2023-06-04T22:19:54;11.80;99.90
59703;DHT22;45570;48.782;8.332;2023-06-04T22:22:24;11.70;99.90
59703;DHT22;45570;48.782;8.332;2023-06-04T22:24:55;11.70;99.90
59703;DHT22;45570;48.782;8.332;2023-06-04T22:27:25;11.70;99.90
59703;DHT22;45570;48.782;8.332;2023-06-04T22:29:55;11.50;99.90
59703;DHT22;45570;48.782;8.332;2023-06-04T22:32:25;11.60;99.90
59703;DHT22;45570;48.782;8.332;2023-06-04T22:34:54;11.50;99.90
59703;DHT22;45570;48.782;8.332;2023-06-04T22:37:24;11.60;99.90
59703;DHT22;45570;48.782;8.332;2023-06-04T22:39:56;11.40;99.90
59703;DHT22;45570;48.782;8.332;2023-06-04T22:42:27;11.40;99.90
59703;DHT22;45570;48.782;8.332;2023-06-04T22:44:59;11.40;99.90
59703;DHT22;45570;48.782;8.332;2023-06-04T22:47:30;11.50;99.90
59703;DHT22;45570;48.782;8.332;2023-06-04T22:50:00;11.50;99.90
59703;DHT22;45570;48.782;8.332;2023-06-04T22:52:31;11.40;99.90
59703;DHT22;45570;48.782;8.332;2023-06-04T22:55:03;11.30;99.90
59703;DHT22;45570;48.782;8.332;2023-06-04T22:57:36;11.30;99.90
59703;DHT22;45570;48.782;8.332;2023-06-04T23:00:07;11.30;99.90
59703;DHT22;45570;48.782;8.332;2023-06-04T23:02:38;11.20;99.90
59703;DHT22;45570;48.782;8.332;2023-06-04T23:05:08;11.00;99.90
59703;DHT22;45570;48.782;8.332;2023-06-04T23:07:38;11.00;99.90
59703;DHT22;45570;48.782;8.332;2023-06-04T23:10:10;10.90;99.90
59703;DHT22;45570;48.782;8.332;2023-06-04T23:12:40;11.00;99.90
59703;DHT22;45570;48.782;8.332;2023-06-04T23:15:19;11.00;99.90
59703;DHT22;45570;48.782;8.332;2023-06-04T23:17:49;10.80;99.90
59703;DHT22;45570;48.782;8.332;2023-06-04T23:20:20;11.00;99.90
59703;DHT22;45570;48.782;8.332;2023-06-04T23:22:50;10.80;99.90
59703;DHT22;45570;48.782;8.332;2023-06-04T23:25:22;10.90;99.90
59703;DHT22;45570;48.782;8.332;2023-06-04T23:27:52;10.80;99.90
59703;DHT22;45570;48.782;8.332;2023-06-04T23:30:22;10.70;99.90
59703;DHT22;45570;48.782;8.332;2023-06-04T23:32:51;10.70;99.90
59703;DHT22;45570;48.782;8.332;2023-06-04T23:35:21;10.60;99.90
59703;DHT22;45570;48.782;8.332;2023-06-04T23:37:51;10.80;99.90
59703;DHT22;45570;48.782;8.332;2023-06-04T23:40:23;10.80;99.90
59703;DHT22;45570;48.782;8.332;2023-06-04T23:42:53;10.80;99.90
59703;DHT22;45570;48.782;8.332;2023-06-04T23:45:22;10.90;99.90
59703;DHT22;45570;48.782;8.332;2023-06-04T23:47:52;10.80;99.90
59703;DHT22;45570;48.782;8.332;2023-06-04T23:50:23;10.70;99.90
59703;DHT22;45570;48.782;8.332;2023-06-04T23:52:52;10.60;99.90
59703;DHT22;45570;48.782;8.332;2023-06-04T23:55:24;10.80;99.90
59703;DHT22;45570;48.782;8.332;2023-06-04T23:57:53;11.00;99.90
